Terminal Aerodrome Forecast
Issued by NWS

Home | Current Version | Previous Version | Text Only | Print | Product List | Glossary On
Versions: 1 2 3 4 5 6 7 8 9 10 11 12 13
000
FTUS45 KRIW 182325
TAFBPI
TAF
KBPI 182325Z 1900/1924 VRB06KT P6SM BKN090
     FM190500 VRB06KT P6SM SCT070 WS015/24035KT
     FM192200 27012G20KT P6SM VCSH BKN035=

USA.gov is the U.S. government's official web portal to all federal, state and local government web resources and services.